createdAt,value
2022-09-20T00:00:12.682Z,1012.8
2022-09-20T00:01:28.877Z,1012.9
2022-09-20T00:02:45.322Z,1012.9
2022-09-20T00:04:01.503Z,1012.9
2022-09-20T00:05:17.705Z,1012.9
2022-09-20T00:06:33.883Z,1012.9
2022-09-20T00:07:49.100Z,1012.8
2022-09-20T00:09:05.028Z,1012.9
2022-09-20T00:10:21.467Z,1012.9
2022-09-20T00:11:37.391Z,1012.9
2022-09-20T00:12:53.858Z,1012.9
2022-09-20T00:14:10.047Z,1012.9
2022-09-20T00:15:25.242Z,1012.9
2022-09-20T00:16:41.168Z,1012.9
2022-09-20T00:17:57.632Z,1012.8
2022-09-20T00:19:13.810Z,1012.9
2022-09-20T00:20:29.736Z,1012.9
2022-09-20T00:21:46.189Z,1012.9
2022-09-20T00:23:02.390Z,1012.8
2022-09-20T00:24:18.309Z,1012.9
2022-09-20T00:25:34.759Z,1012.9
2022-09-20T00:26:50.955Z,1012.9
2022-09-20T00:28:07.144Z,1013
2022-09-20T00:29:23.323Z,1013
2022-09-20T00:30:39.519Z,1012.9
2022-09-20T00:31:54.456Z,1013
2022-09-20T00:33:10.633Z,1012.9
2022-09-20T00:34:27.109Z,1012.9
2022-09-20T00:35:43.283Z,1013
2022-09-20T00:36:59.210Z,1013
2022-09-20T00:38:15.396Z,1013
2022-09-20T00:39:31.589Z,1013
2022-09-20T00:40:48.041Z,1013
2022-09-20T00:42:04.000Z,1013
2022-09-20T00:43:20.419Z,1013
2022-09-20T00:44:36.613Z,1013
2022-09-20T00:45:52.801Z,1013
2022-09-20T00:47:08.720Z,1013
2022-09-20T00:48:24.189Z,1013.1
2022-09-20T00:49:40.382Z,1013.1
2022-09-20T00:50:56.285Z,1013.1
2022-09-20T00:52:12.766Z,1013.1
2022-09-20T00:53:28.954Z,1013
2022-09-20T00:54:44.862Z,1013
2022-09-20T00:56:01.048Z,1013
2022-09-20T00:57:17.507Z,1013.1
2022-09-20T00:58:33.704Z,1013
2022-09-20T00:59:49.902Z,1013
2022-09-20T01:01:05.798Z,1013
2022-09-20T01:02:22.279Z,1013
2022-09-20T01:03:38.175Z,1013
2022-09-20T01:04:53.388Z,1013
2022-09-20T01:06:09.847Z,1013
2022-09-20T01:07:26.046Z,1013
2022-09-20T01:08:42.236Z,1013
2022-09-20T01:09:58.149Z,1013
2022-09-20T01:11:14.608Z,1013
2022-09-20T01:12:30.530Z,1013
2022-09-20T01:13:46.981Z,1013
2022-09-20T01:15:03.173Z,1013
2022-09-20T01:16:19.082Z,1013
2022-09-20T01:17:35.268Z,1013
2022-09-20T01:18:51.455Z,1013
2022-09-20T01:20:07.932Z,1013
2022-09-20T01:21:23.141Z,1013
2022-09-20T01:22:39.337Z,1013
2022-09-20T01:23:55.521Z,1013
2022-09-20T01:25:11.416Z,1013
2022-09-20T01:26:27.895Z,1013
2022-09-20T01:27:44.091Z,1013
2022-09-20T01:29:00.277Z,1013
2022-09-20T01:30:16.184Z,1013.1
2022-09-20T01:31:32.662Z,1013
2022-09-20T01:32:48.554Z,1013
2022-09-20T01:34:05.033Z,1013
2022-09-20T01:35:21.217Z,1013
2022-09-20T01:36:37.399Z,1013
2022-09-20T01:37:52.622Z,1013
2022-09-20T01:39:08.805Z,1013
2022-09-20T01:40:25.004Z,1013
2022-09-20T01:41:40.906Z,1013
2022-09-20T01:42:57.369Z,1013.1
2022-09-20T01:44:13.562Z,1013
2022-09-20T01:45:29.455Z,1013.1
2022-09-20T01:46:45.944Z,1013.1
2022-09-20T01:48:01.851Z,1013.1
2022-09-20T01:49:18.321Z,1013.1
2022-09-20T01:50:34.503Z,1013.1
2022-09-20T01:51:50.406Z,1013.2
2022-09-20T01:53:06.889Z,1013.1
2022-09-20T01:54:22.083Z,1013.1
2022-09-20T01:55:38.280Z,1013.2
2022-09-20T01:56:54.468Z,1013.2
2022-09-20T01:58:10.669Z,1013.2
2022-09-20T01:59:26.851Z,1013.2
2022-09-20T02:00:43.048Z,1013.2
2022-09-20T02:01:59.232Z,1013.2
2022-09-20T02:03:15.120Z,1013.2
2022-09-20T02:04:31.611Z,1013.3
2022-09-20T02:05:47.510Z,1013.2
2022-09-20T02:07:03.992Z,1013.3
2022-09-20T02:08:20.167Z,1013.2
2022-09-20T02:09:36.067Z,1013.2
2022-09-20T02:10:51.567Z,1013.3
2022-09-20T02:12:07.754Z,1013.2
2022-09-20T02:13:23.938Z,1013.2
2022-09-20T02:14:40.133Z,1013.2
2022-09-20T02:15:56.039Z,1013.2
2022-09-20T02:17:12.214Z,1013.3
2022-09-20T02:18:28.398Z,1013.3
2022-09-20T02:19:44.605Z,1013.3
2022-09-20T02:21:01.087Z,1013.3
2022-09-20T02:22:17.277Z,1013.3
2022-09-20T02:23:33.157Z,1013.3
2022-09-20T02:24:49.656Z,1013.3
2022-09-20T02:26:05.843Z,1013.3
2022-09-20T02:27:21.038Z,1013.3
2022-09-20T02:28:36.934Z,1013.3
2022-09-20T02:29:53.430Z,1013.3
2022-09-20T02:31:09.615Z,1013.3
2022-09-20T02:32:25.790Z,1013.3
2022-09-20T02:33:41.690Z,1013.4
2022-09-20T02:34:58.179Z,1013.4
2022-09-20T02:36:14.361Z,1013.4
2022-09-20T02:37:30.545Z,1013.4
2022-09-20T02:38:46.446Z,1013.4
2022-09-20T02:40:02.936Z,1013.4
2022-09-20T02:41:19.117Z,1013.4
2022-09-20T02:42:35.318Z,1013.4
2022-09-20T02:43:50.220Z,1013.4
2022-09-20T02:45:06.416Z,1013.4
2022-09-20T02:46:22.900Z,1013.4
2022-09-20T02:47:39.084Z,1013.4
2022-09-20T02:48:54.973Z,1013.4
2022-09-20T02:50:11.463Z,1013.4
2022-09-20T02:51:27.661Z,1013.4
2022-09-20T02:52:43.544Z,1013.5
2022-09-20T02:54:00.034Z,1013.4
2022-09-20T02:55:16.212Z,1013.4
2022-09-20T02:56:32.108Z,1013.4
2022-09-20T02:57:48.298Z,1013.4
2022-09-20T02:59:04.789Z,1013.4
2022-09-20T03:00:19.998Z,1013.4
2022-09-20T03:01:36.187Z,1013.5
2022-09-20T03:02:52.367Z,1013.5
2022-09-20T03:04:08.269Z,1013.5
2022-09-20T03:05:24.757Z,1013.4
2022-09-20T03:06:40.644Z,1013.5
2022-09-20T03:07:57.130Z,1013.5
2022-09-20T03:09:13.011Z,1013.5
2022-09-20T03:10:29.499Z,1013.4
2022-09-20T03:11:45.395Z,1013.5
2022-09-20T03:13:01.573Z,1013.5
2022-09-20T03:14:18.079Z,1013.5
2022-09-20T03:15:34.261Z,1013.5
2022-09-20T03:16:50.464Z,1013.5
2022-09-20T03:18:05.355Z,1013.5
2022-09-20T03:19:21.543Z,1013.5
2022-09-20T03:20:37.729Z,1013.5
2022-09-20T03:21:53.922Z,1013.5
2022-09-20T03:23:10.104Z,1013.6
2022-09-20T03:24:26.606Z,1013.6
2022-09-20T03:25:42.795Z,1013.6
2022-09-20T03:26:58.681Z,1013.6
2022-09-20T03:28:15.174Z,1013.6
2022-09-20T03:29:31.366Z,1013.6
2022-09-20T03:30:47.230Z,1013.6
2022-09-20T03:32:03.733Z,1013.6
2022-09-20T03:33:19.924Z,1013.6
2022-09-20T03:34:34.829Z,1013.7
2022-09-20T03:35:51.006Z,1013.6
2022-09-20T03:37:07.206Z,1013.7
2022-09-20T03:38:23.690Z,1013.6
2022-09-20T03:39:39.886Z,1013.6
2022-09-20T03:40:56.087Z,1013.7
2022-09-20T03:42:12.272Z,1013.7
2022-09-20T03:43:28.455Z,1013.7
2022-09-20T03:44:44.640Z,1013.7
2022-09-20T03:46:00.829Z,1013.7
2022-09-20T03:47:17.015Z,1013.7
2022-09-20T03:48:33.207Z,1013.7
2022-09-20T03:49:49.095Z,1013.7
2022-09-20T03:51:04.612Z,1013.7
2022-09-20T03:52:20.481Z,1013.7
2022-09-20T03:53:36.988Z,1013.7
2022-09-20T03:54:53.170Z,1013.7
2022-09-20T03:56:09.040Z,1013.7
2022-09-20T03:57:25.231Z,1013.7
2022-09-20T03:58:41.736Z,1013.7
2022-09-20T03:59:57.929Z,1013.6
2022-09-20T04:01:14.109Z,1013.7
2022-09-20T04:02:30.303Z,1013.7
2022-09-20T04:03:46.493Z,1013.7
2022-09-20T04:05:02.365Z,1013.7
2022-09-20T04:06:18.864Z,1013.6
2022-09-20T04:07:34.074Z,1013.7
2022-09-20T04:08:50.268Z,1013.7
2022-09-20T04:10:06.137Z,1013.7
2022-09-20T04:11:22.654Z,1013.7
2022-09-20T04:12:38.519Z,1013.7
2022-09-20T04:13:54.708Z,1013.8
2022-09-20T04:15:10.888Z,1013.8
2022-09-20T04:16:27.396Z,1013.8
2022-09-20T04:17:43.601Z,1013.8
2022-09-20T04:18:59.787Z,1013.8
2022-09-20T04:20:15.639Z,1013.8
2022-09-20T04:21:32.162Z,1013.8
2022-09-20T04:22:48.030Z,1013.8
2022-09-20T04:24:03.547Z,1013.8
2022-09-20T04:25:19.751Z,1013.8
2022-09-20T04:26:35.613Z,1013.8
2022-09-20T04:27:51.790Z,1013.8
2022-09-20T04:29:08.319Z,1013.8
2022-09-20T04:30:23.515Z,1013.8
2022-09-20T04:31:39.712Z,1013.9
2022-09-20T04:32:55.891Z,1013.8
2022-09-20T04:34:12.086Z,1013.8
2022-09-20T04:35:27.955Z,1013.8
2022-09-20T04:36:44.462Z,1013.8
2022-09-20T04:38:00.326Z,1013.9
2022-09-20T04:39:16.841Z,1013.9
2022-09-20T04:40:33.030Z,1013.9
2022-09-20T04:41:49.225Z,1013.9
2022-09-20T04:43:05.080Z,1013.8
2022-09-20T04:44:21.590Z,1013.9
2022-09-20T04:45:37.780Z,1013.9
2022-09-20T04:46:52.995Z,1013.8
2022-09-20T04:48:08.851Z,1013.9
2022-09-20T04:49:25.376Z,1013.9
2022-09-20T04:50:41.232Z,1013.9
2022-09-20T04:51:57.418Z,1013.9
2022-09-20T04:53:13.935Z,1013.8
2022-09-20T04:54:30.126Z,1013.9
2022-09-20T04:55:45.979Z,1013.9
2022-09-20T04:57:02.512Z,1013.9
2022-09-20T04:58:18.685Z,1014
2022-09-20T04:59:34.558Z,1013.9
2022-09-20T05:00:51.071Z,1013.9
2022-09-20T05:02:07.260Z,1013.9
2022-09-20T05:03:22.468Z,1013.9
2022-09-20T05:04:38.332Z,1014
2022-09-20T05:05:54.515Z,1014
2022-09-20T05:07:11.028Z,1014
2022-09-20T05:08:27.233Z,1014
2022-09-20T05:09:43.413Z,1014
2022-09-20T05:10:59.605Z,1014.1
2022-09-20T05:12:15.792Z,1014
2022-09-20T05:13:31.652Z,1014.1
2022-09-20T05:14:48.177Z,1014.1
2022-09-20T05:16:04.360Z,1014.2
2022-09-20T05:17:20.210Z,1014.2
2022-09-20T05:18:36.739Z,1014.1
2022-09-20T05:19:51.935Z,1014.2
2022-09-20T05:21:07.789Z,1014.2
2022-09-20T05:22:24.311Z,1014.3
2022-09-20T05:23:40.514Z,1014.2
2022-09-20T05:24:56.702Z,1014.3
2022-09-20T05:26:12.889Z,1014.3
2022-09-20T05:27:29.072Z,1014.3
2022-09-20T05:28:44.926Z,1014.3
2022-09-20T05:30:01.114Z,1014.3
2022-09-20T05:31:17.644Z,1014.4
2022-09-20T05:32:33.823Z,1014.4
2022-09-20T05:33:49.682Z,1014.4
2022-09-20T05:35:06.206Z,1014.4
2022-09-20T05:36:21.079Z,1014.3
2022-09-20T05:37:37.601Z,1014.4
2022-09-20T05:38:53.460Z,1014.4
2022-09-20T05:40:09.977Z,1014.4
2022-09-20T05:41:25.831Z,1014.4
2022-09-20T05:42:42.367Z,1014.5
2022-09-20T05:43:58.217Z,1014.5
2022-09-20T05:45:14.747Z,1014.5
2022-09-20T05:46:30.925Z,1014.5
2022-09-20T05:47:47.121Z,1014.5
2022-09-20T05:49:03.309Z,1014.5
2022-09-20T05:50:19.495Z,1014.6
2022-09-20T05:51:35.337Z,1014.6
2022-09-20T05:52:50.894Z,1014.6
2022-09-20T05:54:07.070Z,1014.6
2022-09-20T05:55:23.191Z,1014.6
2022-09-20T05:56:39.463Z,1014.6
2022-09-20T05:57:55.583Z,1014.6
2022-09-20T05:59:11.761Z,1014.6
2022-09-20T06:00:28.021Z,1014.6
2022-09-20T06:01:44.208Z,1014.7
2022-09-20T06:03:00.404Z,1014.7
2022-09-20T06:04:16.601Z,1014.6
2022-09-20T06:05:32.772Z,1014.7
2022-09-20T06:06:48.892Z,1014.7
2022-09-20T06:08:05.077Z,1014.7
2022-09-20T06:09:20.297Z,1014.7
2022-09-20T06:10:36.551Z,1014.7
2022-09-20T06:11:52.742Z,1014.7
2022-09-20T06:13:08.932Z,1014.8
2022-09-20T06:14:25.049Z,1014.7
2022-09-20T06:15:41.316Z,1014.7
2022-09-20T06:16:57.489Z,1014.7
2022-09-20T06:18:13.683Z,1014.7
2022-09-20T06:19:29.797Z,1014.7
2022-09-20T06:20:45.993Z,1014.7
2022-09-20T06:22:02.189Z,1014.8
2022-09-20T06:23:18.445Z,1014.8
2022-09-20T06:24:34.562Z,1014.8
2022-09-20T06:25:49.771Z,1014.8
2022-09-20T06:27:06.047Z,1014.8
2022-09-20T06:28:22.208Z,1014.9
2022-09-20T06:29:38.331Z,1014.8
2022-09-20T06:30:54.597Z,1014.9
2022-09-20T06:32:10.704Z,1014.8
2022-09-20T06:33:26.891Z,1014.9
2022-09-20T06:34:43.171Z,1014.8
2022-09-20T06:35:59.341Z,1014.9
2022-09-20T06:37:15.468Z,1014.9
2022-09-20T06:38:31.725Z,1014.9
2022-09-20T06:39:47.909Z,1014.9
2022-09-20T06:41:04.030Z,1014.9
2022-09-20T06:42:19.231Z,1014.9
2022-09-20T06:43:35.509Z,1014.9
2022-09-20T06:44:51.619Z,1014.9
2022-09-20T06:46:07.800Z,1014.8
2022-09-20T06:47:24.067Z,1015
2022-09-20T06:48:40.263Z,1014.8
2022-09-20T06:49:56.374Z,1014.9
2022-09-20T06:51:12.645Z,1014.9
2022-09-20T06:52:28.734Z,1014.9
2022-09-20T06:53:45.019Z,1014.9
2022-09-20T06:55:01.206Z,1014.9
2022-09-20T06:56:17.395Z,1014.9
2022-09-20T06:57:33.507Z,1014.9
2022-09-20T06:58:48.795Z,1014.9
2022-09-20T07:00:04.896Z,1014.8
2022-09-20T07:01:21.159Z,1014.9
2022-09-20T07:02:37.267Z,1014.9
2022-09-20T07:03:53.545Z,1014.9
2022-09-20T07:05:09.638Z,1015
2022-09-20T07:06:25.922Z,1014.9
2022-09-20T07:07:42.027Z,1015
2022-09-20T07:08:58.304Z,1015
2022-09-20T07:10:14.497Z,1015
2022-09-20T07:11:30.677Z,1015
2022-09-20T07:12:46.875Z,1015
2022-09-20T07:14:03.048Z,1015.1
2022-09-20T07:15:18.186Z,1015.1
2022-09-20T07:16:34.358Z,1015
2022-09-20T07:17:50.560Z,1015.1
2022-09-20T07:19:06.731Z,1015.1
2022-09-20T07:20:23.025Z,1015.1
2022-09-20T07:21:39.210Z,1015.2
2022-09-20T07:22:55.318Z,1015.1
2022-09-20T07:24:11.505Z,1015.1
2022-09-20T07:25:27.766Z,1015.2
2022-09-20T07:26:43.879Z,1015.2
2022-09-20T07:28:00.160Z,1015.2
2022-09-20T07:29:16.350Z,1015.2
2022-09-20T07:30:32.448Z,1015.2
2022-09-20T07:31:47.737Z,1015.2
2022-09-20T07:33:03.838Z,1015.2
2022-09-20T07:34:20.108Z,1015.2
2022-09-20T07:35:36.294Z,1015.3
2022-09-20T07:36:52.407Z,1015.2
2022-09-20T07:38:08.584Z,1015.3
2022-09-20T07:39:24.874Z,1015.3
2022-09-20T07:40:41.056Z,1015.3
2022-09-20T07:41:57.255Z,1015.3
2022-09-20T07:43:13.354Z,1015.3
2022-09-20T07:44:29.524Z,1015.3
2022-09-20T07:45:45.715Z,1015.3
2022-09-20T07:47:02.014Z,1015.3
2022-09-20T07:48:17.214Z,1015.4
2022-09-20T07:49:33.401Z,1015.4
2022-09-20T07:50:49.581Z,1015.4
2022-09-20T07:52:05.786Z,1015.5
2022-09-20T07:53:21.867Z,1015.5
2022-09-20T07:54:38.155Z,1015.4
2022-09-20T07:55:54.343Z,1015.4
2022-09-20T07:57:10.537Z,1015.4
2022-09-20T07:58:26.724Z,1015.4
2022-09-20T07:59:42.905Z,1015.4
2022-09-20T08:00:59.107Z,1015.5
2022-09-20T08:02:15.194Z,1015.4
2022-09-20T08:03:31.477Z,1015.4
2022-09-20T08:04:46.674Z,1015.5
2022-09-20T08:06:02.864Z,1015.4
2022-09-20T08:07:19.066Z,1015.5
2022-09-20T08:08:35.162Z,1015.5
2022-09-20T08:09:51.443Z,1015.5
2022-09-20T08:11:07.525Z,1015.4
2022-09-20T08:12:23.819Z,1015.5
2022-09-20T08:13:40.014Z,1015.5
2022-09-20T08:14:56.187Z,1015.5
2022-09-20T08:16:12.285Z,1015.5
2022-09-20T08:17:28.578Z,1015.6
2022-09-20T08:18:44.665Z,1015.5
2022-09-20T08:20:00.945Z,1015.5
2022-09-20T08:21:16.058Z,1015.6
2022-09-20T08:22:32.350Z,1015.5
2022-09-20T08:23:48.440Z,1015.5
2022-09-20T08:25:04.716Z,1015.6
2022-09-20T08:26:20.907Z,1015.5
2022-09-20T08:27:37.109Z,1015.6
2022-09-20T08:28:53.291Z,1015.6
2022-09-20T08:30:09.381Z,1015.6
2022-09-20T08:31:25.570Z,1015.6
2022-09-20T08:32:41.847Z,1015.6
2022-09-20T08:33:58.040Z,1015.6
2022-09-20T08:35:14.239Z,1015.7
2022-09-20T08:36:30.309Z,1015.7
2022-09-20T08:37:45.525Z,1015.7
2022-09-20T08:39:01.695Z,1015.6
2022-09-20T08:40:17.987Z,1015.7
2022-09-20T08:41:34.178Z,1015.7
2022-09-20T08:42:50.372Z,1015.7
2022-09-20T08:44:06.444Z,1015.7
2022-09-20T08:45:21.759Z,1015.7
2022-09-20T08:46:37.961Z,1015.7
2022-09-20T08:47:54.141Z,1015.8
2022-09-20T08:49:10.320Z,1015.7
2022-09-20T08:50:26.506Z,1015.7
2022-09-20T08:51:42.700Z,1015.7
2022-09-20T08:52:58.776Z,1015.7
2022-09-20T08:54:14.977Z,1015.7
2022-09-20T08:55:31.260Z,1015.7
2022-09-20T08:56:47.442Z,1015.7
2022-09-20T08:58:03.636Z,1015.7
2022-09-20T08:59:19.818Z,1015.7
2022-09-20T09:00:36.017Z,1015.8
2022-09-20T09:01:51.111Z,1015.8
2022-09-20T09:03:07.408Z,1015.8
2022-09-20T09:04:23.596Z,1015.8
2022-09-20T09:05:39.770Z,1015.7
2022-09-20T09:06:55.975Z,1015.8
2022-09-20T09:08:12.160Z,1015.8
2022-09-20T09:09:28.231Z,1015.7
2022-09-20T09:10:44.534Z,1015.8
2022-09-20T09:12:00.727Z,1015.8
2022-09-20T09:13:16.894Z,1015.8
2022-09-20T09:14:33.090Z,1015.8
2022-09-20T09:15:49.274Z,1015.7
2022-09-20T09:17:05.365Z,1015.7
2022-09-20T09:18:20.666Z,1015.8
2022-09-20T09:19:36.752Z,1015.8
2022-09-20T09:20:53.034Z,1015.8
2022-09-20T09:22:09.226Z,1015.9
2022-09-20T09:23:25.426Z,1015.7
2022-09-20T09:24:41.608Z,1015.8
2022-09-20T09:25:57.788Z,1015.8
2022-09-20T09:27:13.868Z,1015.8
2022-09-20T09:28:30.176Z,1015.8
2022-09-20T09:29:46.357Z,1015.8
2022-09-20T09:31:02.438Z,1015.8
2022-09-20T09:32:18.621Z,1015.8
2022-09-20T09:33:34.911Z,1015.8
2022-09-20T09:34:50.124Z,1015.7
2022-09-20T09:36:06.318Z,1015.7
2022-09-20T09:37:22.487Z,1015.8
2022-09-20T09:38:38.561Z,1015.7
2022-09-20T09:39:54.756Z,1015.8
2022-09-20T09:41:11.064Z,1015.7
2022-09-20T09:42:27.253Z,1015.7
2022-09-20T09:43:43.433Z,1015.7
2022-09-20T09:44:59.626Z,1015.7
2022-09-20T09:46:15.807Z,1015.8
2022-09-20T09:47:31.884Z,1015.8
2022-09-20T09:48:48.193Z,1015.8
2022-09-20T09:50:04.376Z,1015.7
2022-09-20T09:51:19.568Z,1015.7
2022-09-20T09:52:35.760Z,1015.7
2022-09-20T09:53:51.945Z,1015.7
2022-09-20T09:55:08.012Z,1015.8
2022-09-20T09:56:24.328Z,1015.7
2022-09-20T09:57:40.505Z,1015.7
2022-09-20T09:58:56.690Z,1015.7
2022-09-20T10:00:12.770Z,1015.8
2022-09-20T10:01:29.082Z,1015.7
2022-09-20T10:02:45.260Z,1015.7
2022-09-20T10:04:01.336Z,1015.6
2022-09-20T10:05:17.637Z,1015.6
2022-09-20T10:06:33.815Z,1015.7
2022-09-20T10:07:49.020Z,1015.7
2022-09-20T10:09:05.101Z,1015.7
2022-09-20T10:10:21.275Z,1015.6
2022-09-20T10:11:37.599Z,1015.6
2022-09-20T10:12:53.656Z,1015.6
2022-09-20T10:14:09.969Z,1015.6
2022-09-20T10:15:26.021Z,1015.6
2022-09-20T10:16:42.214Z,1015.6
2022-09-20T10:17:58.409Z,1015.6
2022-09-20T10:19:14.710Z,1015.6
2022-09-20T10:20:30.899Z,1015.6
2022-09-20T10:21:46.958Z,1015.6
2022-09-20T10:23:03.270Z,1015.6
2022-09-20T10:24:18.354Z,1015.6
2022-09-20T10:25:34.668Z,1015.5
2022-09-20T10:26:50.860Z,1015.6
2022-09-20T10:28:07.042Z,1015.5
2022-09-20T10:29:23.237Z,1015.5
2022-09-20T10:30:39.413Z,1015.5
2022-09-20T10:31:55.612Z,1015.6
2022-09-20T10:33:11.667Z,1015.6
2022-09-20T10:34:27.971Z,1015.6
2022-09-20T10:35:44.162Z,1015.7
2022-09-20T10:37:00.355Z,1015.7
2022-09-20T10:38:16.546Z,1015.6
2022-09-20T10:39:32.723Z,1015.7
2022-09-20T10:40:47.939Z,1015.7
2022-09-20T10:42:03.987Z,1015.6
2022-09-20T10:43:20.299Z,1015.7
2022-09-20T10:44:36.488Z,1015.7
2022-09-20T10:45:52.676Z,1015.7
2022-09-20T10:47:08.867Z,1015.7
2022-09-20T10:48:25.053Z,1015.7
2022-09-20T10:49:41.252Z,1015.8
2022-09-20T10:50:57.298Z,1015.8
2022-09-20T10:52:13.623Z,1015.8
2022-09-20T10:53:29.799Z,1015.8
2022-09-20T10:54:45.984Z,1015.8
2022-09-20T10:56:02.172Z,1015.8
2022-09-20T10:57:17.376Z,1015.9
2022-09-20T10:58:33.565Z,1015.9
2022-09-20T10:59:49.757Z,1015.9
2022-09-20T11:01:05.953Z,1015.9
2022-09-20T11:02:22.124Z,1016
2022-09-20T11:03:38.177Z,1016
2022-09-20T11:04:54.505Z,1016.1
2022-09-20T11:06:10.688Z,1016
2022-09-20T11:07:26.888Z,1016
2022-09-20T11:08:43.065Z,1016
2022-09-20T11:09:59.258Z,1016
2022-09-20T11:11:15.316Z,1016.1
2022-09-20T11:12:31.625Z,1016
2022-09-20T11:13:46.833Z,1016.1
2022-09-20T11:15:03.029Z,1016.1
2022-09-20T11:16:19.073Z,1016
2022-09-20T11:17:35.386Z,1016.1
2022-09-20T11:18:51.448Z,1016.1
2022-09-20T11:20:07.770Z,1016.1
2022-09-20T11:21:23.819Z,1016.2
2022-09-20T11:22:40.149Z,1016.3
2022-09-20T11:23:56.000Z,1016.6
2022-09-20T11:25:12.372Z,1016.4
2022-09-20T11:26:28.579Z,1016.6
2022-09-20T11:27:44.902Z,1016.6
2022-09-20T11:29:01.090Z,1016.8
2022-09-20T11:30:16.282Z,1016.7
2022-09-20T11:31:32.334Z,1016.6
2022-09-20T11:32:48.530Z,1016.7
2022-09-20T11:34:04.703Z,1016.7
2022-09-20T11:35:20.903Z,1016.7
2022-09-20T11:36:37.223Z,1016.7
2022-09-20T11:37:53.259Z,1016.7
2022-09-20T11:39:09.599Z,1016.6
2022-09-20T11:40:25.780Z,1016.7
2022-09-20T11:41:41.826Z,1016.7
2022-09-20T11:42:58.011Z,1016.6
2022-09-20T11:44:14.206Z,1016.7
2022-09-20T11:45:30.532Z,1016.6
2022-09-20T11:46:45.592Z,1016.6
2022-09-20T11:48:01.919Z,1016.6
2022-09-20T11:49:17.971Z,1016.5
2022-09-20T11:50:34.304Z,1016.6
2022-09-20T11:51:50.480Z,1016.6
2022-09-20T11:53:06.674Z,1016.6
2022-09-20T11:54:22.869Z,1016.5
2022-09-20T11:55:39.052Z,1016.6
2022-09-20T11:56:55.090Z,1016.5
2022-09-20T11:58:11.430Z,1016.5
2022-09-20T11:59:27.463Z,1016.6
2022-09-20T12:00:43.793Z,1016.6
2022-09-20T12:01:59.986Z,1016.6
2022-09-20T12:03:15.187Z,1016.6
2022-09-20T12:04:31.238Z,1016.6
2022-09-20T12:05:47.568Z,1016.5
2022-09-20T12:07:03.759Z,1016.6
2022-09-20T12:08:19.938Z,1016.6
2022-09-20T12:09:36.120Z,1016.5
2022-09-20T12:10:52.313Z,1016.6
2022-09-20T12:12:08.362Z,1016.6
2022-09-20T12:13:24.550Z,1016.6
2022-09-20T12:14:40.723Z,1016.6
2022-09-20T12:15:57.072Z,1016.6
2022-09-20T12:17:13.244Z,1016.6
2022-09-20T12:18:29.435Z,1016.6
2022-09-20T12:19:44.490Z,1016.6
2022-09-20T12:21:00.822Z,1016.6
2022-09-20T12:22:16.858Z,1016.6
2022-09-20T12:23:33.047Z,1016.5
2022-09-20T12:24:49.393Z,1016.5
2022-09-20T12:26:05.585Z,1016.5
2022-09-20T12:27:21.612Z,1016.5
2022-09-20T12:28:37.804Z,1016.4
2022-09-20T12:29:53.985Z,1016.4
2022-09-20T12:31:10.179Z,1016.4
2022-09-20T12:32:26.514Z,1016.3
2022-09-20T12:33:42.698Z,1016.3
2022-09-20T12:34:58.740Z,1016.3
2022-09-20T12:36:14.086Z,1016.3
2022-09-20T12:37:30.275Z,1016.3
2022-09-20T12:38:46.322Z,1016.3
2022-09-20T12:40:02.663Z,1016.3
2022-09-20T12:41:18.694Z,1016.2
2022-09-20T12:42:34.880Z,1016.3
2022-09-20T12:43:51.228Z,1016.2
2022-09-20T12:45:07.245Z,1016.2
2022-09-20T12:46:23.591Z,1016.2
2022-09-20T12:47:39.626Z,1016.2
2022-09-20T12:48:55.973Z,1016.2
2022-09-20T12:50:11.994Z,1016.2
2022-09-20T12:51:28.341Z,1016.3
2022-09-20T12:52:43.557Z,1016.1
2022-09-20T12:53:59.742Z,1016.2
2022-09-20T12:55:15.761Z,1016.2
2022-09-20T12:56:31.950Z,1016.2
2022-09-20T12:57:48.132Z,1016.2
2022-09-20T12:59:04.491Z,1016.3
2022-09-20T13:00:19.704Z,1016.3
2022-09-20T13:01:35.884Z,1016.2
2022-09-20T13:02:51.903Z,1016.3
2022-09-20T13:04:08.254Z,1016.3
2022-09-20T13:05:24.443Z,1016.3
2022-09-20T13:06:40.481Z,1016.3
2022-09-20T13:07:56.821Z,1016.3
2022-09-20T13:09:12.854Z,1016.4
2022-09-20T13:10:29.190Z,1016.4
2022-09-20T13:11:45.377Z,1016.3
2022-09-20T13:13:01.410Z,1016.4
2022-09-20T13:14:17.747Z,1016.3
2022-09-20T13:15:33.784Z,1016.4
2022-09-20T13:16:48.993Z,1016.4
2022-09-20T13:18:05.326Z,1016.4
2022-09-20T13:19:21.352Z,1016.6
2022-09-20T13:20:37.707Z,1016.5
2022-09-20T13:21:53.892Z,1016.5
2022-09-20T13:23:10.079Z,1016.6
2022-09-20T13:24:26.262Z,1016.5
2022-09-20T13:25:42.296Z,1016.6
2022-09-20T13:26:58.645Z,1016.6
2022-09-20T13:28:14.675Z,1016.7
2022-09-20T13:29:30.846Z,1016.7
2022-09-20T13:30:47.214Z,1016.7
2022-09-20T13:32:03.396Z,1016.7
2022-09-20T13:33:18.426Z,1016.7
2022-09-20T13:34:34.615Z,1016.6
2022-09-20T13:35:50.977Z,1016.6
2022-09-20T13:37:07.163Z,1016.6
2022-09-20T13:38:23.356Z,1016.6
2022-09-20T13:39:39.545Z,1016.6
2022-09-20T13:40:55.723Z,1016.6
2022-09-20T13:42:11.903Z,1016.6
2022-09-20T13:43:27.928Z,1016.6
2022-09-20T13:44:44.118Z,1016.6
2022-09-20T13:46:00.478Z,1016.6
2022-09-20T13:47:16.666Z,1016.7
2022-09-20T13:48:32.681Z,1016.7
2022-09-20T13:49:48.061Z,1016.7
2022-09-20T13:51:04.234Z,1016.8
2022-09-20T13:52:20.427Z,1016.8
2022-09-20T13:53:36.607Z,1016.8
2022-09-20T13:54:52.628Z,1016.8
2022-09-20T13:56:09.001Z,1016.7
2022-09-20T13:57:25.179Z,1016.8
2022-09-20T13:58:41.200Z,1016.7
2022-09-20T13:59:57.550Z,1016.8
2022-09-20T14:01:13.735Z,1016.8
2022-09-20T14:02:29.923Z,1016.8
2022-09-20T14:03:46.110Z,1016.8
2022-09-20T14:05:02.294Z,1016.8
2022-09-20T14:06:17.341Z,1016.8
2022-09-20T14:07:33.000Z,1016.8
2022-09-20T14:08:49.879Z,1016.8
2022-09-20T14:10:05.898Z,1016.9
2022-09-20T14:11:22.262Z,1016.9
2022-09-20T14:12:38.278Z,1016.9
2022-09-20T14:13:54.456Z,1016.8
2022-09-20T14:15:10.822Z,1016.8
2022-09-20T14:16:27.009Z,1016.9
2022-09-20T14:17:43.198Z,1016.9
2022-09-20T14:18:59.371Z,1016.8
2022-09-20T14:20:15.575Z,1016.9
2022-09-20T14:21:31.568Z,1016.9
2022-09-20T14:22:46.782Z,1016.9
2022-09-20T14:24:02.961Z,1017
2022-09-20T14:25:19.161Z,1016.9
2022-09-20T14:26:35.339Z,1016.9
2022-09-20T14:27:51.711Z,1017
2022-09-20T14:29:07.718Z,1016.9
2022-09-20T14:30:23.908Z,1017
2022-09-20T14:31:40.259Z,1016.9
2022-09-20T14:32:56.453Z,1016.9
2022-09-20T14:34:12.643Z,1017
2022-09-20T14:35:28.648Z,1017
2022-09-20T14:36:44.840Z,1017
2022-09-20T14:38:01.210Z,1017
2022-09-20T14:39:16.403Z,1017
2022-09-20T14:40:32.588Z,1017
2022-09-20T14:41:48.794Z,1017
2022-09-20T14:43:04.976Z,1017
2022-09-20T14:44:20.971Z,1017
2022-09-20T14:45:37.350Z,1016.9
2022-09-20T14:46:53.539Z,1017
2022-09-20T14:48:09.544Z,1017
2022-09-20T14:49:25.912Z,1017
2022-09-20T14:50:42.096Z,1016.9
2022-09-20T14:51:58.282Z,1017
2022-09-20T14:53:14.472Z,1017
2022-09-20T14:54:30.656Z,1017
2022-09-20T14:55:45.866Z,1017
2022-09-20T14:57:01.853Z,1017
2022-09-20T14:58:18.225Z,1017
2022-09-20T14:59:34.229Z,1017.1
2022-09-20T15:00:50.610Z,1017
2022-09-20T15:02:06.798Z,1017.1
2022-09-20T15:03:22.979Z,1017
2022-09-20T15:04:39.180Z,1017.1
2022-09-20T15:05:55.351Z,1017.1
2022-09-20T15:07:11.552Z,1017.1
2022-09-20T15:08:27.726Z,1017.1
2022-09-20T15:09:43.929Z,1017.1
2022-09-20T15:11:00.108Z,1017.1
2022-09-20T15:12:15.312Z,1017.1
2022-09-20T15:13:31.489Z,1017.2
2022-09-20T15:14:47.696Z,1017.2
2022-09-20T15:16:03.865Z,1017.2
2022-09-20T15:17:20.066Z,1017.2
2022-09-20T15:18:36.257Z,1017.2
2022-09-20T15:19:52.443Z,1017.2
2022-09-20T15:21:08.622Z,1017.3
2022-09-20T15:22:24.615Z,1017.2
2022-09-20T15:23:41.003Z,1017.3
2022-09-20T15:24:57.185Z,1017.3
2022-09-20T15:26:13.368Z,1017.3
2022-09-20T15:27:29.379Z,1017.4
2022-09-20T15:28:44.774Z,1017.4
2022-09-20T15:30:00.954Z,1017.4
2022-09-20T15:31:17.136Z,1017.4
2022-09-20T15:32:33.317Z,1017.4
2022-09-20T15:33:49.513Z,1017.4
2022-09-20T15:35:05.703Z,1017.4
2022-09-20T15:36:21.892Z,1017.5
2022-09-20T15:37:37.889Z,1017.5
2022-09-20T15:38:54.078Z,1017.4
2022-09-20T15:40:10.448Z,1017.5
2022-09-20T15:41:26.643Z,1017.5
2022-09-20T15:42:42.629Z,1017.5
2022-09-20T15:43:59.012Z,1017.6
2022-09-20T15:45:14.027Z,1017.6
2022-09-20T15:46:30.203Z,1017.6
2022-09-20T15:47:46.388Z,1017.6
2022-09-20T15:49:02.787Z,1017.6
2022-09-20T15:50:18.959Z,1017.6
2022-09-20T15:51:35.158Z,1017.7
2022-09-20T15:52:51.147Z,1017.6
2022-09-20T15:54:07.530Z,1017.6
2022-09-20T15:55:23.716Z,1017.6
2022-09-20T15:56:39.907Z,1017.6